sensor_id;sensor_type;location;lat;lon;timestamp;P1;durP1;ratioP1;P2;durP2;ratioP2
80409;SDS011;69746;45.596;10.154;2023-11-22T00:01:33;4.32;;;2.50;;
80409;SDS011;69746;45.596;10.154;2023-11-22T00:03:59;4.32;;;2.67;;
80409;SDS011;69746;45.596;10.154;2023-11-22T00:06:25;3.35;;;2.58;;
80409;SDS011;69746;45.596;10.154;2023-11-22T00:08:52;4.28;;;2.55;;
80409;SDS011;69746;45.596;10.154;2023-11-22T00:11:22;4.25;;;2.80;;
80409;SDS011;69746;45.596;10.154;2023-11-22T00:13:48;3.83;;;2.85;;
80409;SDS011;69746;45.596;10.154;2023-11-22T00:16:14;3.72;;;2.55;;
80409;SDS011;69746;45.596;10.154;2023-11-22T00:18:41;4.07;;;2.83;;
80409;SDS011;69746;45.596;10.154;2023-11-22T00:21:07;4.35;;;3.15;;
80409;SDS011;69746;45.596;10.154;2023-11-22T00:23:32;5.55;;;2.50;;
80409;SDS011;69746;45.596;10.154;2023-11-22T00:25:58;4.28;;;2.78;;
80409;SDS011;69746;45.596;10.154;2023-11-22T00:28:24;4.05;;;2.30;;
80409;SDS011;69746;45.596;10.154;2023-11-22T00:30:50;3.38;;;2.55;;
80409;SDS011;69746;45.596;10.154;2023-11-22T00:33:16;4.07;;;2.58;;
80409;SDS011;69746;45.596;10.154;2023-11-22T00:35:43;4.22;;;2.78;;
80409;SDS011;69746;45.596;10.154;2023-11-22T00:38:09;3.97;;;2.30;;
80409;SDS011;69746;45.596;10.154;2023-11-22T00:40:37;3.60;;;2.47;;
80409;SDS011;69746;45.596;10.154;2023-11-22T00:43:05;4.43;;;2.60;;
80409;SDS011;69746;45.596;10.154;2023-11-22T00:45:31;4.43;;;2.63;;
80409;SDS011;69746;45.596;10.154;2023-11-22T00:47:57;3.67;;;2.35;;
80409;SDS011;69746;45.596;10.154;2023-11-22T00:50:25;3.58;;;2.38;;
80409;SDS011;69746;45.596;10.154;2023-11-22T00:52:51;3.30;;;2.17;;
80409;SDS011;69746;45.596;10.154;2023-11-22T00:55:17;4.13;;;2.80;;
80409;SDS011;69746;45.596;10.154;2023-11-22T00:57:44;3.40;;;2.35;;
80409;SDS011;69746;45.596;10.154;2023-11-22T01:00:12;4.03;;;2.42;;
80409;SDS011;69746;45.596;10.154;2023-11-22T01:02:41;4.40;;;2.70;;
80409;SDS011;69746;45.596;10.154;2023-11-22T01:05:07;4.07;;;2.28;;
80409;SDS011;69746;45.596;10.154;2023-11-22T01:07:37;3.35;;;2.40;;
80409;SDS011;69746;45.596;10.154;2023-11-22T01:10:03;3.78;;;2.38;;
80409;SDS011;69746;45.596;10.154;2023-11-22T01:12:31;5.07;;;2.10;;
80409;SDS011;69746;45.596;10.154;2023-11-22T01:14:57;3.22;;;2.10;;
80409;SDS011;69746;45.596;10.154;2023-11-22T01:17:22;4.80;;;2.70;;
80409;SDS011;69746;45.596;10.154;2023-11-22T01:19:49;4.03;;;2.50;;
80409;SDS011;69746;45.596;10.154;2023-11-22T01:22:18;3.75;;;2.38;;
80409;SDS011;69746;45.596;10.154;2023-11-22T01:24:45;2.97;;;2.20;;
80409;SDS011;69746;45.596;10.154;2023-11-22T01:27:11;3.05;;;2.40;;
80409;SDS011;69746;45.596;10.154;2023-11-22T01:29:38;3.83;;;2.30;;
80409;SDS011;69746;45.596;10.154;2023-11-22T01:32:03;3.42;;;2.47;;
80409;SDS011;69746;45.596;10.154;2023-11-22T01:34:30;4.22;;;2.35;;
80409;SDS011;69746;45.596;10.154;2023-11-22T01:36:55;3.88;;;2.47;;
80409;SDS011;69746;45.596;10.154;2023-11-22T01:39:21;3.70;;;2.40;;
80409;SDS011;69746;45.596;10.154;2023-11-22T01:41:47;3.45;;;2.40;;
80409;SDS011;69746;45.596;10.154;2023-11-22T01:44:15;3.92;;;2.42;;
80409;SDS011;69746;45.596;10.154;2023-11-22T01:46:41;4.05;;;2.65;;
80409;SDS011;69746;45.596;10.154;2023-11-22T01:49:09;3.53;;;2.40;;
80409;SDS011;69746;45.596;10.154;2023-11-22T01:51:39;3.42;;;2.25;;
80409;SDS011;69746;45.596;10.154;2023-11-22T01:54:07;4.00;;;2.53;;
80409;SDS011;69746;45.596;10.154;2023-11-22T01:56:35;4.10;;;2.72;;
80409;SDS011;69746;45.596;10.154;2023-11-22T01:59:02;4.10;;;2.55;;
80409;SDS011;69746;45.596;10.154;2023-11-22T02:01:30;3.38;;;2.47;;
80409;SDS011;69746;45.596;10.154;2023-11-22T02:04:02;3.90;;;2.15;;
80409;SDS011;69746;45.596;10.154;2023-11-22T02:06:28;3.72;;;2.50;;
80409;SDS011;69746;45.596;10.154;2023-11-22T02:08:56;5.43;;;2.55;;
80409;SDS011;69746;45.596;10.154;2023-11-22T02:11:22;3.92;;;2.38;;
80409;SDS011;69746;45.596;10.154;2023-11-22T02:13:49;3.42;;;2.40;;
80409;SDS011;69746;45.596;10.154;2023-11-22T02:16:16;3.92;;;2.53;;
80409;SDS011;69746;45.596;10.154;2023-11-22T02:18:44;3.70;;;2.53;;
80409;SDS011;69746;45.596;10.154;2023-11-22T02:21:10;3.70;;;2.38;;
80409;SDS011;69746;45.596;10.154;2023-11-22T02:23:36;4.00;;;2.47;;
80409;SDS011;69746;45.596;10.154;2023-11-22T02:26:02;4.03;;;2.45;;
80409;SDS011;69746;45.596;10.154;2023-11-22T02:28:28;4.22;;;2.75;;
80409;SDS011;69746;45.596;10.154;2023-11-22T02:30:56;3.33;;;2.40;;
80409;SDS011;69746;45.596;10.154;2023-11-22T02:33:22;2.97;;;2.20;;
80409;SDS011;69746;45.596;10.154;2023-11-22T02:35:48;4.45;;;2.50;;
80409;SDS011;69746;45.596;10.154;2023-11-22T02:38:15;3.83;;;2.22;;
80409;SDS011;69746;45.596;10.154;2023-11-22T02:40:46;3.53;;;2.40;;
80409;SDS011;69746;45.596;10.154;2023-11-22T02:43:13;3.83;;;2.30;;
80409;SDS011;69746;45.596;10.154;2023-11-22T02:45:39;3.72;;;1.80;;
80409;SDS011;69746;45.596;10.154;2023-11-22T02:48:05;3.55;;;2.20;;
80409;SDS011;69746;45.596;10.154;2023-11-22T02:50:34;3.17;;;2.05;;
80409;SDS011;69746;45.596;10.154;2023-11-22T02:53:02;3.50;;;2.50;;
80409;SDS011;69746;45.596;10.154;2023-11-22T02:55:29;4.03;;;2.30;;
80409;SDS011;69746;45.596;10.154;2023-11-22T02:57:55;4.05;;;2.53;;
80409;SDS011;69746;45.596;10.154;2023-11-22T03:00:21;3.45;;;2.40;;
80409;SDS011;69746;45.596;10.154;2023-11-22T03:02:47;3.40;;;2.20;;
80409;SDS011;69746;45.596;10.154;2023-11-22T03:05:13;3.65;;;2.30;;
80409;SDS011;69746;45.596;10.154;2023-11-22T03:07:43;3.75;;;2.20;;
80409;SDS011;69746;45.596;10.154;2023-11-22T03:10:09;3.20;;;2.30;;
80409;SDS011;69746;45.596;10.154;2023-11-22T03:12:35;4.20;;;2.42;;
80409;SDS011;69746;45.596;10.154;2023-11-22T03:15:02;3.45;;;2.20;;
80409;SDS011;69746;45.596;10.154;2023-11-22T03:17:29;3.80;;;2.08;;
80409;SDS011;69746;45.596;10.154;2023-11-22T03:19:55;3.17;;;2.00;;
80409;SDS011;69746;45.596;10.154;2023-11-22T03:22:23;3.65;;;2.35;;
80409;SDS011;69746;45.596;10.154;2023-11-22T03:24:49;2.75;;;1.80;;
80409;SDS011;69746;45.596;10.154;2023-11-22T03:27:15;3.15;;;2.20;;
80409;SDS011;69746;45.596;10.154;2023-11-22T03:29:41;3.88;;;2.28;;
80409;SDS011;69746;45.596;10.154;2023-11-22T03:32:07;3.00;;;1.83;;
80409;SDS011;69746;45.596;10.154;2023-11-22T03:34:33;3.88;;;2.65;;
80409;SDS011;69746;45.596;10.154;2023-11-22T03:37:01;4.25;;;2.53;;
80409;SDS011;69746;45.596;10.154;2023-11-22T03:39:27;3.30;;;2.47;;
80409;SDS011;69746;45.596;10.154;2023-11-22T03:41:53;3.72;;;2.17;;
80409;SDS011;69746;45.596;10.154;2023-11-22T03:44:19;3.30;;;2.35;;
80409;SDS011;69746;45.596;10.154;2023-11-22T03:46:45;3.35;;;2.25;;
80409;SDS011;69746;45.596;10.154;2023-11-22T03:49:10;4.00;;;2.30;;
80409;SDS011;69746;45.596;10.154;2023-11-22T03:51:37;3.40;;;2.00;;
80409;SDS011;69746;45.596;10.154;2023-11-22T03:54:04;2.88;;;2.38;;
80409;SDS011;69746;45.596;10.154;2023-11-22T03:56:30;3.70;;;2.50;;
80409;SDS011;69746;45.596;10.154;2023-11-22T03:58:56;4.40;;;2.30;;
80409;SDS011;69746;45.596;10.154;2023-11-22T04:01:22;3.03;;;1.98;;
80409;SDS011;69746;45.596;10.154;2023-11-22T04:03:48;3.63;;;2.33;;
80409;SDS011;69746;45.596;10.154;2023-11-22T04:06:14;3.58;;;2.05;;
80409;SDS011;69746;45.596;10.154;2023-11-22T04:08:43;3.38;;;2.03;;
80409;SDS011;69746;45.596;10.154;2023-11-22T04:11:09;3.20;;;1.90;;
80409;SDS011;69746;45.596;10.154;2023-11-22T04:13:35;3.20;;;2.10;;
80409;SDS011;69746;45.596;10.154;2023-11-22T04:16:03;3.15;;;2.13;;
80409;SDS011;69746;45.596;10.154;2023-11-22T04:18:32;2.80;;;1.90;;
80409;SDS011;69746;45.596;10.154;2023-11-22T04:20:58;2.25;;;1.73;;
80409;SDS011;69746;45.596;10.154;2023-11-22T04:23:26;2.85;;;2.00;;
80409;SDS011;69746;45.596;10.154;2023-11-22T04:25:52;2.65;;;1.67;;
80409;SDS011;69746;45.596;10.154;2023-11-22T04:28:18;3.03;;;1.92;;
80409;SDS011;69746;45.596;10.154;2023-11-22T04:30:44;2.58;;;1.60;;
80409;SDS011;69746;45.596;10.154;2023-11-22T04:33:11;3.28;;;1.88;;
80409;SDS011;69746;45.596;10.154;2023-11-22T04:35:36;2.95;;;1.80;;
80409;SDS011;69746;45.596;10.154;2023-11-22T04:38:04;2.58;;;1.92;;
80409;SDS011;69746;45.596;10.154;2023-11-22T04:40:31;2.88;;;1.90;;
80409;SDS011;69746;45.596;10.154;2023-11-22T04:43:00;3.70;;;2.15;;
80409;SDS011;69746;45.596;10.154;2023-11-22T04:45:25;2.75;;;1.80;;
80409;SDS011;69746;45.596;10.154;2023-11-22T04:47:51;3.17;;;2.33;;
80409;SDS011;69746;45.596;10.154;2023-11-22T04:50:17;3.05;;;2.22;;
80409;SDS011;69746;45.596;10.154;2023-11-22T04:52:43;3.97;;;2.10;;
80409;SDS011;69746;45.596;10.154;2023-11-22T04:55:12;3.10;;;1.92;;
80409;SDS011;69746;45.596;10.154;2023-11-22T04:57:38;2.60;;;1.77;;
80409;SDS011;69746;45.596;10.154;2023-11-22T05:00:05;3.40;;;2.05;;
80409;SDS011;69746;45.596;10.154;2023-11-22T05:02:32;2.90;;;1.90;;
80409;SDS011;69746;45.596;10.154;2023-11-22T05:04:58;2.95;;;2.05;;
80409;SDS011;69746;45.596;10.154;2023-11-22T05:07:24;2.95;;;1.80;;
80409;SDS011;69746;45.596;10.154;2023-11-22T05:09:50;3.35;;;1.88;;
80409;SDS011;69746;45.596;10.154;2023-11-22T05:12:18;2.50;;;1.75;;
80409;SDS011;69746;45.596;10.154;2023-11-22T05:17:13;2.75;;;1.80;;
80409;SDS011;69746;45.596;10.154;2023-11-22T05:19:39;2.85;;;1.73;;
80409;SDS011;69746;45.596;10.154;2023-11-22T05:22:07;2.80;;;1.80;;
80409;SDS011;69746;45.596;10.154;2023-11-22T05:24:33;2.25;;;1.60;;
80409;SDS011;69746;45.596;10.154;2023-11-22T05:27:00;2.60;;;1.45;;
80409;SDS011;69746;45.596;10.154;2023-11-22T05:29:27;3.20;;;1.60;;
80409;SDS011;69746;45.596;10.154;2023-11-22T05:31:53;2.58;;;1.80;;
80409;SDS011;69746;45.596;10.154;2023-11-22T05:34:19;3.20;;;1.90;;
80409;SDS011;69746;45.596;10.154;2023-11-22T05:36:45;2.85;;;1.77;;
80409;SDS011;69746;45.596;10.154;2023-11-22T05:39:11;2.67;;;1.60;;
80409;SDS011;69746;45.596;10.154;2023-11-22T05:41:38;2.40;;;1.83;;
80409;SDS011;69746;45.596;10.154;2023-11-22T05:44:04;2.58;;;1.90;;
80409;SDS011;69746;45.596;10.154;2023-11-22T05:46:32;2.78;;;1.90;;
80409;SDS011;69746;45.596;10.154;2023-11-22T05:48:58;2.55;;;1.83;;
80409;SDS011;69746;45.596;10.154;2023-11-22T05:51:25;2.55;;;1.42;;
80409;SDS011;69746;45.596;10.154;2023-11-22T05:53:51;3.40;;;2.40;;
80409;SDS011;69746;45.596;10.154;2023-11-22T05:56:20;2.38;;;1.98;;
80409;SDS011;69746;45.596;10.154;2023-11-22T05:58:45;2.47;;;1.55;;
80409;SDS011;69746;45.596;10.154;2023-11-22T06:01:11;2.50;;;1.58;;
80409;SDS011;69746;45.596;10.154;2023-11-22T06:03:38;3.45;;;1.88;;
80409;SDS011;69746;45.596;10.154;2023-11-22T06:06:06;2.63;;;1.95;;
80409;SDS011;69746;45.596;10.154;2023-11-22T06:08:32;2.25;;;1.55;;
80409;SDS011;69746;45.596;10.154;2023-11-22T06:10:58;2.67;;;1.65;;
80409;SDS011;69746;45.596;10.154;2023-11-22T06:13:25;2.63;;;1.83;;
80409;SDS011;69746;45.596;10.154;2023-11-22T06:15:52;2.63;;;1.77;;
80409;SDS011;69746;45.596;10.154;2023-11-22T06:18:17;2.72;;;1.63;;
80409;SDS011;69746;45.596;10.154;2023-11-22T06:20:44;2.58;;;1.70;;
80409;SDS011;69746;45.596;10.154;2023-11-22T06:23:18;3.10;;;1.52;;
80409;SDS011;69746;45.596;10.154;2023-11-22T06:25:44;2.53;;;1.55;;
80409;SDS011;69746;45.596;10.154;2023-11-22T06:28:10;3.15;;;1.98;;
80409;SDS011;69746;45.596;10.154;2023-11-22T06:30:36;2.47;;;1.77;;
80409;SDS011;69746;45.596;10.154;2023-11-22T06:33:02;3.03;;;1.70;;
80409;SDS011;69746;45.596;10.154;2023-11-22T06:35:29;14.98;;;2.13;;
80409;SDS011;69746;45.596;10.154;2023-11-22T06:37:54;6.10;;;1.52;;
80409;SDS011;69746;45.596;10.154;2023-11-22T06:40:20;14.82;;;2.08;;
80409;SDS011;69746;45.596;10.154;2023-11-22T06:42:46;9.32;;;2.20;;
80409;SDS011;69746;45.596;10.154;2023-11-22T06:45:12;7.63;;;2.30;;
80409;SDS011;69746;45.596;10.154;2023-11-22T06:47:39;6.00;;;1.60;;
80409;SDS011;69746;45.596;10.154;2023-11-22T06:50:08;4.50;;;2.10;;
80409;SDS011;69746;45.596;10.154;2023-11-22T06:52:36;5.43;;;2.05;;
80409;SDS011;69746;45.596;10.154;2023-11-22T06:55:03;6.40;;;2.38;;
80409;SDS011;69746;45.596;10.154;2023-11-22T06:57:30;3.95;;;2.10;;
80409;SDS011;69746;45.596;10.154;2023-11-22T06:59:59;6.45;;;1.92;;
80409;SDS011;69746;45.596;10.154;2023-11-22T07:02:26;7.68;;;2.15;;
80409;SDS011;69746;45.596;10.154;2023-11-22T07:04:52;5.22;;;2.20;;
80409;SDS011;69746;45.596;10.154;2023-11-22T07:07:18;7.40;;;2.00;;
80409;SDS011;69746;45.596;10.154;2023-11-22T07:09:45;3.92;;;1.95;;
80409;SDS011;69746;45.596;10.154;2023-11-22T07:12:11;4.90;;;2.10;;
80409;SDS011;69746;45.596;10.154;2023-11-22T07:14:37;6.95;;;2.10;;
80409;SDS011;69746;45.596;10.154;2023-11-22T07:17:03;4.47;;;1.70;;
80409;SDS011;69746;45.596;10.154;2023-11-22T07:19:32;7.90;;;1.88;;
80409;SDS011;69746;45.596;10.154;2023-11-22T07:22:04;2.85;;;2.00;;
80409;SDS011;69746;45.596;10.154;2023-11-22T07:24:41;3.03;;;1.80;;
80409;SDS011;69746;45.596;10.154;2023-11-22T07:27:13;3.38;;;1.83;;
80409;SDS011;69746;45.596;10.154;2023-11-22T07:29:42;6.60;;;2.13;;
80409;SDS011;69746;45.596;10.154;2023-11-22T07:32:11;3.88;;;1.85;;
80409;SDS011;69746;45.596;10.154;2023-11-22T07:34:38;5.05;;;1.95;;
80409;SDS011;69746;45.596;10.154;2023-11-22T07:37:08;4.72;;;1.80;;
80409;SDS011;69746;45.596;10.154;2023-11-22T07:39:37;3.72;;;1.88;;
80409;SDS011;69746;45.596;10.154;2023-11-22T07:42:05;5.47;;;2.00;;
80409;SDS011;69746;45.596;10.154;2023-11-22T07:44:34;4.22;;;1.70;;
80409;SDS011;69746;45.596;10.154;2023-11-22T07:47:01;2.75;;;1.63;;
80409;SDS011;69746;45.596;10.154;2023-11-22T07:49:28;4.20;;;1.70;;
80409;SDS011;69746;45.596;10.154;2023-11-22T07:52:03;3.72;;;2.03;;
80409;SDS011;69746;45.596;10.154;2023-11-22T07:54:30;5.60;;;1.90;;
80409;SDS011;69746;45.596;10.154;2023-11-22T07:56:57;3.40;;;1.65;;
80409;SDS011;69746;45.596;10.154;2023-11-22T07:59:23;3.17;;;1.73;;
80409;SDS011;69746;45.596;10.154;2023-11-22T08:01:50;4.60;;;1.70;;
80409;SDS011;69746;45.596;10.154;2023-11-22T08:04:16;4.65;;;1.95;;
80409;SDS011;69746;45.596;10.154;2023-11-22T08:06:48;3.35;;;1.88;;
80409;SDS011;69746;45.596;10.154;2023-11-22T08:09:14;3.10;;;1.75;;
80409;SDS011;69746;45.596;10.154;2023-11-22T08:11:42;3.78;;;1.73;;
80409;SDS011;69746;45.596;10.154;2023-11-22T08:14:08;3.33;;;1.70;;
80409;SDS011;69746;45.596;10.154;2023-11-22T08:16:34;3.17;;;1.88;;
80409;SDS011;69746;45.596;10.154;2023-11-22T08:19:04;3.30;;;1.92;;
80409;SDS011;69746;45.596;10.154;2023-11-22T08:21:31;2.63;;;1.77;;
80409;SDS011;69746;45.596;10.154;2023-11-22T08:23:57;3.45;;;1.50;;
80409;SDS011;69746;45.596;10.154;2023-11-22T08:26:24;2.70;;;1.77;;
80409;SDS011;69746;45.596;10.154;2023-11-22T08:28:53;3.25;;;1.60;;
80409;SDS011;69746;45.596;10.154;2023-11-22T08:31:19;2.60;;;1.48;;
80409;SDS011;69746;45.596;10.154;2023-11-22T08:33:45;3.17;;;1.88;;
80409;SDS011;69746;45.596;10.154;2023-11-22T08:36:11;3.03;;;1.85;;
80409;SDS011;69746;45.596;10.154;2023-11-22T08:38:37;3.03;;;1.50;;
80409;SDS011;69746;45.596;10.154;2023-11-22T08:41:08;2.53;;;1.33;;
80409;SDS011;69746;45.596;10.154;2023-11-22T08:43:39;3.17;;;1.80;;
80409;SDS011;69746;45.596;10.154;2023-11-22T08:46:06;3.35;;;1.60;;
80409;SDS011;69746;45.596;10.154;2023-11-22T08:48:36;3.65;;;1.90;;
80409;SDS011;69746;45.596;10.154;2023-11-22T08:51:07;3.97;;;2.05;;
80409;SDS011;69746;45.596;10.154;2023-11-22T08:53:33;3.30;;;1.83;;
80409;SDS011;69746;45.596;10.154;2023-11-22T08:55:59;2.60;;;1.70;;
80409;SDS011;69746;45.596;10.154;2023-11-22T08:58:28;2.75;;;1.40;;
80409;SDS011;69746;45.596;10.154;2023-11-22T09:00:53;3.30;;;1.70;;
80409;SDS011;69746;45.596;10.154;2023-11-22T09:03:20;3.38;;;1.38;;
80409;SDS011;69746;45.596;10.154;2023-11-22T09:05:46;3.65;;;1.77;;
80409;SDS011;69746;45.596;10.154;2023-11-22T09:08:15;2.60;;;1.60;;
80409;SDS011;69746;45.596;10.154;2023-11-22T09:10:41;2.53;;;1.50;;
80409;SDS011;69746;45.596;10.154;2023-11-22T09:13:08;2.90;;;1.88;;
80409;SDS011;69746;45.596;10.154;2023-11-22T09:15:34;4.45;;;1.80;;
80409;SDS011;69746;45.596;10.154;2023-11-22T09:18:00;2.65;;;1.73;;
80409;SDS011;69746;45.596;10.154;2023-11-22T09:20:27;3.30;;;1.60;;
80409;SDS011;69746;45.596;10.154;2023-11-22T09:22:53;2.08;;;1.10;;
80409;SDS011;69746;45.596;10.154;2023-11-22T09:25:20;3.85;;;1.90;;
80409;SDS011;69746;45.596;10.154;2023-11-22T09:27:48;2.63;;;1.58;;
80409;SDS011;69746;45.596;10.154;2023-11-22T09:30:19;3.65;;;1.58;;
80409;SDS011;69746;45.596;10.154;2023-11-22T09:32:59;3.17;;;1.33;;
80409;SDS011;69746;45.596;10.154;2023-11-22T09:35:25;2.28;;;1.48;;
80409;SDS011;69746;45.596;10.154;2023-11-22T09:37:51;4.22;;;1.70;;
80409;SDS011;69746;45.596;10.154;2023-11-22T09:40:20;2.70;;;1.60;;
80409;SDS011;69746;45.596;10.154;2023-11-22T09:42:48;2.50;;;1.50;;
80409;SDS011;69746;45.596;10.154;2023-11-22T09:45:17;2.25;;;1.35;;
80409;SDS011;69746;45.596;10.154;2023-11-22T09:47:46;2.60;;;1.65;;
80409;SDS011;69746;45.596;10.154;2023-11-22T09:50:19;3.15;;;1.73;;
80409;SDS011;69746;45.596;10.154;2023-11-22T09:52:50;2.90;;;1.70;;
80409;SDS011;69746;45.596;10.154;2023-11-22T09:55:19;2.83;;;1.65;;
80409;SDS011;69746;45.596;10.154;2023-11-22T09:57:48;3.58;;;1.50;;
80409;SDS011;69746;45.596;10.154;2023-11-22T10:00:15;2.30;;;1.50;;
80409;SDS011;69746;45.596;10.154;2023-11-22T10:02:44;2.50;;;1.45;;
80409;SDS011;69746;45.596;10.154;2023-11-22T10:05:10;2.55;;;1.80;;
80409;SDS011;69746;45.596;10.154;2023-11-22T10:07:37;3.00;;;1.60;;
80409;SDS011;69746;45.596;10.154;2023-11-22T10:10:04;2.47;;;1.45;;
80409;SDS011;69746;45.596;10.154;2023-11-22T10:12:31;2.25;;;1.48;;
80409;SDS011;69746;45.596;10.154;2023-11-22T10:15:13;3.03;;;1.73;;
80409;SDS011;69746;45.596;10.154;2023-11-22T10:17:47;2.70;;;1.80;;
80409;SDS011;69746;45.596;10.154;2023-11-22T10:22:51;2.30;;;1.63;;
80409;SDS011;69746;45.596;10.154;2023-11-22T10:25:17;2.70;;;1.83;;
80409;SDS011;69746;45.596;10.154;2023-11-22T10:27:47;2.58;;;1.60;;
80409;SDS011;69746;45.596;10.154;2023-11-22T10:30:13;3.08;;;1.58;;
80409;SDS011;69746;45.596;10.154;2023-11-22T10:32:42;3.05;;;1.40;;
80409;SDS011;69746;45.596;10.154;2023-11-22T10:35:08;2.38;;;1.38;;
80409;SDS011;69746;45.596;10.154;2023-11-22T10:37:35;2.17;;;1.42;;
80409;SDS011;69746;45.596;10.154;2023-11-22T10:40:01;1.98;;;1.30;;
80409;SDS011;69746;45.596;10.154;2023-11-22T10:42:30;3.00;;;1.55;;
80409;SDS011;69746;45.596;10.154;2023-11-22T10:44:57;2.60;;;1.65;;
80409;SDS011;69746;45.596;10.154;2023-11-22T10:47:28;2.13;;;1.33;;
80409;SDS011;69746;45.596;10.154;2023-11-22T10:49:55;3.97;;;1.50;;
80409;SDS011;69746;45.596;10.154;2023-11-22T10:52:21;2.20;;;1.40;;
80409;SDS011;69746;45.596;10.154;2023-11-22T10:54:56;2.95;;;1.73;;
80409;SDS011;69746;45.596;10.154;2023-11-22T10:57:30;2.40;;;1.50;;
80409;SDS011;69746;45.596;10.154;2023-11-22T11:00:00;2.33;;;1.65;;
80409;SDS011;69746;45.596;10.154;2023-11-22T11:02:35;2.20;;;1.30;;
80409;SDS011;69746;45.596;10.154;2023-11-22T11:05:11;2.97;;;1.48;;
80409;SDS011;69746;45.596;10.154;2023-11-22T11:08:07;2.42;;;1.30;;
80409;SDS011;69746;45.596;10.154;2023-11-22T11:10:40;2.60;;;1.48;;
80409;SDS011;69746;45.596;10.154;2023-11-22T11:13:08;2.30;;;1.40;;
80409;SDS011;69746;45.596;10.154;2023-11-22T11:15:35;3.10;;;1.88;;
80409;SDS011;69746;45.596;10.154;2023-11-22T11:18:06;2.92;;;1.50;;
80409;SDS011;69746;45.596;10.154;2023-11-22T11:20:51;2.55;;;1.50;;
80409;SDS011;69746;45.596;10.154;2023-11-22T11:23:22;2.50;;;1.50;;
80409;SDS011;69746;45.596;10.154;2023-11-22T11:25:51;3.17;;;1.50;;
80409;SDS011;69746;45.596;10.154;2023-11-22T11:28:22;2.35;;;1.50;;
80409;SDS011;69746;45.596;10.154;2023-11-22T11:30:56;2.40;;;1.67;;
80409;SDS011;69746;45.596;10.154;2023-11-22T11:33:34;2.78;;;1.23;;
80409;SDS011;69746;45.596;10.154;2023-11-22T11:38:53;1.98;;;1.20;;
80409;SDS011;69746;45.596;10.154;2023-11-22T11:41:27;2.13;;;1.33;;
80409;SDS011;69746;45.596;10.154;2023-11-22T11:43:56;2.17;;;1.42;;
80409;SDS011;69746;45.596;10.154;2023-11-22T11:46:23;2.60;;;1.40;;
80409;SDS011;69746;45.596;10.154;2023-11-22T11:48:51;2.35;;;1.60;;
80409;SDS011;69746;45.596;10.154;2023-11-22T11:51:18;2.35;;;1.48;;
80409;SDS011;69746;45.596;10.154;2023-11-22T11:53:47;2.72;;;1.42;;
80409;SDS011;69746;45.596;10.154;2023-11-22T11:56:14;1.95;;;1.42;;
80409;SDS011;69746;45.596;10.154;2023-11-22T11:58:41;2.67;;;1.65;;
80409;SDS011;69746;45.596;10.154;2023-11-22T12:01:08;2.50;;;1.38;;
80409;SDS011;69746;45.596;10.154;2023-11-22T12:03:37;2.97;;;1.42;;
80409;SDS011;69746;45.596;10.154;2023-11-22T12:06:04;2.42;;;1.50;;
80409;SDS011;69746;45.596;10.154;2023-11-22T12:08:33;3.20;;;1.20;;
80409;SDS011;69746;45.596;10.154;2023-11-22T12:11:02;2.13;;;1.30;;
80409;SDS011;69746;45.596;10.154;2023-11-22T12:13:38;2.47;;;1.50;;
80409;SDS011;69746;45.596;10.154;2023-11-22T12:16:08;2.22;;;1.20;;
80409;SDS011;69746;45.596;10.154;2023-11-22T12:18:43;2.38;;;1.48;;
80409;SDS011;69746;45.596;10.154;2023-11-22T12:21:13;1.90;;;1.33;;
80409;SDS011;69746;45.596;10.154;2023-11-22T12:23:42;1.80;;;1.20;;
80409;SDS011;69746;45.596;10.154;2023-11-22T12:26:14;2.10;;;1.30;;
80409;SDS011;69746;45.596;10.154;2023-11-22T12:28:45;2.65;;;1.30;;
80409;SDS011;69746;45.596;10.154;2023-11-22T12:31:13;2.30;;;1.20;;
80409;SDS011;69746;45.596;10.154;2023-11-22T12:36:07;2.55;;;1.10;;
80409;SDS011;69746;45.596;10.154;2023-11-22T12:38:35;1.92;;;1.25;;
80409;SDS011;69746;45.596;10.154;2023-11-22T12:41:02;1.85;;;1.25;;
80409;SDS011;69746;45.596;10.154;2023-11-22T12:43:31;2.30;;;1.40;;
80409;SDS011;69746;45.596;10.154;2023-11-22T12:46:01;2.55;;;1.20;;
80409;SDS011;69746;45.596;10.154;2023-11-22T12:48:28;1.73;;;1.17;;
80409;SDS011;69746;45.596;10.154;2023-11-22T12:50:57;2.22;;;1.20;;
80409;SDS011;69746;45.596;10.154;2023-11-22T12:53:23;2.60;;;1.60;;
80409;SDS011;69746;45.596;10.154;2023-11-22T12:55:51;2.03;;;1.30;;
80409;SDS011;69746;45.596;10.154;2023-11-22T13:00:45;2.70;;;1.35;;
80409;SDS011;69746;45.596;10.154;2023-11-22T13:03:13;1.90;;;1.02;;
80409;SDS011;69746;45.596;10.154;2023-11-22T13:05:40;2.20;;;1.38;;
80409;SDS011;69746;45.596;10.154;2023-11-22T13:08:10;2.08;;;1.40;;
80409;SDS011;69746;45.596;10.154;2023-11-22T13:10:39;1.80;;;1.27;;
80409;SDS011;69746;45.596;10.154;2023-11-22T13:13:08;1.70;;;1.25;;
80409;SDS011;69746;45.596;10.154;2023-11-22T13:15:37;2.10;;;1.30;;
80409;SDS011;69746;45.596;10.154;2023-11-22T13:18:04;2.35;;;1.23;;
80409;SDS011;69746;45.596;10.154;2023-11-22T13:20:32;2.00;;;1.25;;
80409;SDS011;69746;45.596;10.154;2023-11-22T13:22:58;2.20;;;1.20;;
80409;SDS011;69746;45.596;10.154;2023-11-22T13:25:25;2.03;;;1.20;;
80409;SDS011;69746;45.596;10.154;2023-11-22T13:27:51;1.83;;;1.10;;
80409;SDS011;69746;45.596;10.154;2023-11-22T13:30:19;2.03;;;1.35;;
80409;SDS011;69746;45.596;10.154;2023-11-22T13:32:50;2.47;;;1.30;;
80409;SDS011;69746;45.596;10.154;2023-11-22T13:35:22;2.10;;;1.30;;
80409;SDS011;69746;45.596;10.154;2023-11-22T13:37:48;2.47;;;1.40;;
80409;SDS011;69746;45.596;10.154;2023-11-22T13:40:15;1.70;;;1.15;;
80409;SDS011;69746;45.596;10.154;2023-11-22T13:42:47;2.22;;;1.30;;
80409;SDS011;69746;45.596;10.154;2023-11-22T13:45:17;1.85;;;1.10;;
80409;SDS011;69746;45.596;10.154;2023-11-22T13:47:54;1.55;;;1.10;;
80409;SDS011;69746;45.596;10.154;2023-11-22T13:50:26;1.75;;;1.10;;
80409;SDS011;69746;45.596;10.154;2023-11-22T13:52:52;2.17;;;1.30;;
80409;SDS011;69746;45.596;10.154;2023-11-22T13:55:19;1.90;;;1.00;;
80409;SDS011;69746;45.596;10.154;2023-11-22T13:57:49;2.05;;;1.40;;
80409;SDS011;69746;45.596;10.154;2023-11-22T14:00:19;2.03;;;1.00;;
80409;SDS011;69746;45.596;10.154;2023-11-22T14:02:53;2.15;;;1.38;;
80409;SDS011;69746;45.596;10.154;2023-11-22T14:05:22;2.10;;;1.38;;
80409;SDS011;69746;45.596;10.154;2023-11-22T14:07:48;2.25;;;1.48;;
80409;SDS011;69746;45.596;10.154;2023-11-22T14:10:16;2.00;;;1.38;;
80409;SDS011;69746;45.596;10.154;2023-11-22T14:12:43;1.77;;;0.88;;
80409;SDS011;69746;45.596;10.154;2023-11-22T14:15:10;1.63;;;1.15;;
80409;SDS011;69746;45.596;10.154;2023-11-22T14:17:37;2.70;;;1.23;;
80409;SDS011;69746;45.596;10.154;2023-11-22T14:20:12;1.88;;;1.20;;
80409;SDS011;69746;45.596;10.154;2023-11-22T14:22:39;1.88;;;1.27;;
80409;SDS011;69746;45.596;10.154;2023-11-22T14:25:06;1.80;;;1.10;;
80409;SDS011;69746;45.596;10.154;2023-11-22T14:27:36;2.17;;;1.27;;
80409;SDS011;69746;45.596;10.154;2023-11-22T14:30:06;2.00;;;0.98;;
80409;SDS011;69746;45.596;10.154;2023-11-22T14:32:33;1.80;;;1.20;;
80409;SDS011;69746;45.596;10.154;2023-11-22T14:35:01;1.60;;;1.10;;
80409;SDS011;69746;45.596;10.154;2023-11-22T14:37:28;2.92;;;1.17;;
80409;SDS011;69746;45.596;10.154;2023-11-22T14:39:55;1.88;;;1.20;;
80409;SDS011;69746;45.596;10.154;2023-11-22T14:42:22;2.90;;;1.30;;
80409;SDS011;69746;45.596;10.154;2023-11-22T14:44:54;2.88;;;1.30;;
80409;SDS011;69746;45.596;10.154;2023-11-22T14:47:20;1.77;;;1.20;;
80409;SDS011;69746;45.596;10.154;2023-11-22T14:49:50;2.60;;;1.45;;